createdAt,value
2018-05-02T00:00:23.708Z,20.67
2018-05-02T00:01:23.720Z,20.70
2018-05-02T00:02:23.751Z,20.69
2018-05-02T00:03:23.758Z,20.69
2018-05-02T00:04:23.808Z,20.70
2018-05-02T00:05:23.795Z,20.70
2018-05-02T00:06:23.819Z,20.70
2018-05-02T00:07:23.840Z,20.70
2018-05-02T00:08:23.858Z,20.67
2018-05-02T00:09:23.875Z,20.69
2018-05-02T00:10:23.896Z,20.63
2018-05-02T00:11:23.908Z,20.65
2018-05-02T00:12:23.923Z,20.67
2018-05-02T00:13:23.951Z,20.69
2018-05-02T00:14:23.969Z,20.70
2018-05-02T00:15:23.981Z,20.72
2018-05-02T00:16:24.008Z,20.69
2018-05-02T00:17:24.020Z,20.67
2018-05-02T00:18:24.033Z,20.60
2018-05-02T00:19:24.053Z,20.72
2018-05-02T00:20:24.072Z,20.80
2018-05-02T00:21:24.093Z,20.69
2018-05-02T00:22:24.115Z,20.69
2018-05-02T00:23:24.131Z,20.74
2018-05-02T00:24:24.164Z,20.66
2018-05-02T00:25:24.169Z,20.74
2018-05-02T00:26:24.184Z,20.75
2018-05-02T00:27:24.218Z,20.80
2018-05-02T00:28:24.220Z,20.74
2018-05-02T00:29:24.240Z,20.75
2018-05-02T00:30:24.257Z,20.80
2018-05-02T00:31:24.278Z,20.81
2018-05-02T00:32:24.293Z,20.84
2018-05-02T00:33:24.313Z,20.88
2018-05-02T00:34:24.333Z,20.88
2018-05-02T00:35:24.349Z,20.82
2018-05-02T00:36:24.369Z,20.88
2018-05-02T00:37:24.387Z,20.93
2018-05-02T00:38:24.408Z,20.93
2018-05-02T00:39:24.427Z,20.88
2018-05-02T00:40:24.445Z,20.92
2018-05-02T00:41:24.460Z,21.02
2018-05-02T00:42:24.478Z,20.96
2018-05-02T00:43:24.510Z,21.05
2018-05-02T00:44:24.517Z,21.05
2018-05-02T00:45:24.532Z,20.99
2018-05-02T00:46:24.549Z,21.02
2018-05-02T00:47:24.579Z,21.02
2018-05-02T00:48:24.592Z,21.07
2018-05-02T00:49:24.601Z,20.96
2018-05-02T00:50:24.623Z,21.02
2018-05-02T00:51:24.648Z,21.03
2018-05-02T00:52:24.664Z,21.00
2018-05-02T00:53:24.693Z,20.99
2018-05-02T00:54:24.699Z,20.99
2018-05-02T00:55:24.718Z,20.99
2018-05-02T00:56:24.736Z,20.96
2018-05-02T00:57:24.757Z,21.00
2018-05-02T00:58:24.772Z,20.97
2018-05-02T00:59:24.792Z,21.05
2018-05-02T01:00:24.815Z,21.03
2018-05-02T01:01:24.827Z,21.02
2018-05-02T01:02:24.852Z,20.96
2018-05-02T01:03:24.889Z,21.06
2018-05-02T01:04:24.893Z,21.03
2018-05-02T01:05:24.901Z,21.03
2018-05-02T01:06:24.923Z,21.02
2018-05-02T01:07:24.938Z,20.99
2018-05-02T01:08:24.957Z,21.06
2018-05-02T01:09:24.978Z,21.09
2018-05-02T01:10:24.994Z,21.00
2018-05-02T01:11:25.012Z,21.00
2018-05-02T01:12:25.029Z,21.02
2018-05-02T01:13:25.062Z,21.00
2018-05-02T01:14:25.101Z,21.06
2018-05-02T01:15:25.092Z,20.99
2018-05-02T01:16:25.112Z,21.00
2018-05-02T01:17:25.124Z,20.99
2018-05-02T01:18:25.132Z,21.00
2018-05-02T01:19:25.157Z,20.92
2018-05-02T01:20:25.191Z,21.06
2018-05-02T01:21:25.198Z,20.96
2018-05-02T01:22:25.219Z,20.99
2018-05-02T01:23:25.233Z,20.99
2018-05-02T01:24:25.250Z,20.92
2018-05-02T01:25:25.275Z,20.90
2018-05-02T01:26:25.293Z,21.03
2018-05-02T01:27:25.306Z,20.97
2018-05-02T01:28:25.326Z,20.92
2018-05-02T01:29:25.346Z,20.93
2018-05-02T01:30:25.362Z,20.90
2018-05-02T01:31:25.383Z,20.90
2018-05-02T01:32:25.400Z,20.97
2018-05-02T01:33:25.431Z,20.92
2018-05-02T01:34:25.481Z,20.92
2018-05-02T01:35:25.463Z,20.95
2018-05-02T01:36:25.480Z,20.87
2018-05-02T01:37:25.490Z,20.88
2018-05-02T01:38:25.513Z,20.92
2018-05-02T01:39:25.530Z,20.93
2018-05-02T01:40:25.548Z,20.93
2018-05-02T01:41:25.566Z,20.93
2018-05-02T01:42:25.584Z,20.95
2018-05-02T01:43:25.608Z,20.95
2018-05-02T01:44:25.624Z,20.92
2018-05-02T01:45:25.640Z,20.90
2018-05-02T01:46:25.665Z,20.93
2018-05-02T01:47:25.679Z,20.85
2018-05-02T01:48:25.688Z,20.99
2018-05-02T01:49:25.718Z,20.84
2018-05-02T01:50:25.732Z,20.95
2018-05-02T01:51:25.753Z,20.84
2018-05-02T01:52:25.769Z,20.84
2018-05-02T01:53:25.789Z,20.84
2018-05-02T01:54:25.806Z,20.85
2018-05-02T01:55:25.827Z,20.90
2018-05-02T01:56:25.842Z,20.90
2018-05-02T01:57:25.867Z,20.82
2018-05-02T01:58:25.888Z,20.82
2018-05-02T01:59:25.898Z,20.92
2018-05-02T02:00:25.917Z,20.88
2018-05-02T02:01:25.935Z,20.87
2018-05-02T02:02:25.959Z,20.87
2018-05-02T02:03:25.968Z,20.84
2018-05-02T02:04:25.998Z,20.87
2018-05-02T02:05:26.007Z,20.92
2018-05-02T02:06:26.028Z,20.82
2018-05-02T02:07:26.045Z,20.85
2018-05-02T02:08:26.069Z,20.85
2018-05-02T02:09:26.083Z,20.82
2018-05-02T02:10:26.100Z,20.82
2018-05-02T02:11:26.122Z,20.88
2018-05-02T02:12:26.136Z,20.85
2018-05-02T02:13:26.154Z,20.85
2018-05-02T02:14:26.176Z,20.75
2018-05-02T02:15:26.191Z,20.82
2018-05-02T02:16:26.212Z,20.82
2018-05-02T02:17:26.235Z,20.85
2018-05-02T02:18:26.246Z,20.87
2018-05-02T02:19:26.270Z,20.84
2018-05-02T02:20:26.280Z,20.90
2018-05-02T02:21:26.304Z,20.92
2018-05-02T02:22:26.315Z,20.87
2018-05-02T02:23:26.342Z,20.90
2018-05-02T02:24:26.357Z,20.87
2018-05-02T02:25:26.376Z,20.85
2018-05-02T02:26:26.410Z,20.85
2018-05-02T02:27:26.416Z,20.90
2018-05-02T02:28:26.436Z,20.87
2018-05-02T02:29:26.447Z,20.93
2018-05-02T02:30:26.468Z,20.90
2018-05-02T02:31:26.488Z,20.85
2018-05-02T02:32:26.506Z,20.81
2018-05-02T02:33:26.527Z,20.85
2018-05-02T02:34:26.542Z,20.90
2018-05-02T02:35:26.561Z,20.85
2018-05-02T02:36:26.581Z,20.95
2018-05-02T02:37:26.599Z,20.95
2018-05-02T02:38:26.615Z,20.82
2018-05-02T02:39:26.636Z,20.88
2018-05-02T02:40:26.656Z,20.85
2018-05-02T02:41:26.675Z,20.84
2018-05-02T02:42:26.692Z,20.84
2018-05-02T02:43:26.715Z,20.85
2018-05-02T02:44:26.754Z,20.88
2018-05-02T02:45:26.747Z,20.87
2018-05-02T02:46:26.783Z,20.85
2018-05-02T02:47:26.788Z,20.87
2018-05-02T02:48:26.826Z,20.81
2018-05-02T02:49:26.827Z,20.90
2018-05-02T02:50:26.839Z,20.84
2018-05-02T02:51:26.860Z,20.85
2018-05-02T02:52:26.879Z,20.87
2018-05-02T02:53:26.896Z,20.87
2018-05-02T02:54:26.917Z,20.88
2018-05-02T02:55:26.928Z,20.88
2018-05-02T02:56:26.944Z,20.93
2018-05-02T02:57:26.957Z,20.82
2018-05-02T02:58:26.984Z,20.85
2018-05-02T02:59:27.013Z,20.90
2018-05-02T03:00:27.052Z,20.87
2018-05-02T03:01:27.040Z,20.88
2018-05-02T03:02:27.057Z,20.87
2018-05-02T03:03:27.081Z,20.88
2018-05-02T03:04:27.094Z,20.85
2018-05-02T03:05:27.109Z,20.87
2018-05-02T03:06:27.124Z,20.93
2018-05-02T03:07:27.151Z,20.82
2018-05-02T03:08:27.175Z,20.95
2018-05-02T03:09:27.188Z,20.88
2018-05-02T03:10:27.207Z,20.88
2018-05-02T03:11:27.229Z,20.87
2018-05-02T03:12:27.245Z,20.84
2018-05-02T03:13:27.258Z,20.81
2018-05-02T03:14:27.268Z,20.85
2018-05-02T03:15:27.298Z,20.84
2018-05-02T03:16:27.318Z,20.80
2018-05-02T03:17:27.345Z,20.74
2018-05-02T03:18:27.363Z,20.81
2018-05-02T03:19:27.373Z,20.84
2018-05-02T03:20:27.416Z,20.84
2018-05-02T03:21:27.410Z,20.77
2018-05-02T03:22:27.426Z,20.88
2018-05-02T03:23:27.439Z,20.81
2018-05-02T03:24:27.465Z,20.90
2018-05-02T03:25:27.480Z,20.81
2018-05-02T03:26:27.512Z,20.80
2018-05-02T03:27:27.529Z,20.88
2018-05-02T03:28:27.538Z,20.82
2018-05-02T03:29:27.558Z,20.72
2018-05-02T03:30:27.572Z,20.82
2018-05-02T03:31:27.589Z,20.77
2018-05-02T03:32:27.608Z,20.81
2018-05-02T03:33:27.629Z,20.77
2018-05-02T03:34:27.646Z,20.81
2018-05-02T03:35:27.671Z,20.78
2018-05-02T03:36:27.686Z,20.84
2018-05-02T03:37:27.703Z,20.84
2018-05-02T03:38:27.721Z,20.82
2018-05-02T03:39:27.783Z,20.84
2018-05-02T03:40:27.753Z,20.77
2018-05-02T03:41:27.807Z,20.80
2018-05-02T03:42:27.798Z,20.74
2018-05-02T03:43:27.825Z,20.75
2018-05-02T03:44:27.838Z,20.72
2018-05-02T03:45:27.850Z,20.78
2018-05-02T03:46:27.867Z,20.69
2018-05-02T03:47:27.888Z,20.78
2018-05-02T03:48:27.904Z,20.75
2018-05-02T03:49:27.925Z,20.72
2018-05-02T03:50:27.946Z,20.75
2018-05-02T03:51:27.960Z,20.72
2018-05-02T03:52:27.997Z,20.78
2018-05-02T03:53:28.029Z,20.74
2018-05-02T03:54:28.013Z,20.75
2018-05-02T03:55:28.039Z,20.74
2018-05-02T03:56:28.049Z,20.77
2018-05-02T03:57:28.067Z,20.72
2018-05-02T03:58:28.087Z,20.75
2018-05-02T03:59:28.104Z,20.74
2018-05-02T04:00:28.128Z,20.70
2018-05-02T04:01:28.141Z,20.75
2018-05-02T04:02:28.195Z,20.72
2018-05-02T04:03:28.186Z,20.72
2018-05-02T04:04:28.190Z,20.67
2018-05-02T04:05:28.216Z,20.72
2018-05-02T04:06:28.233Z,20.67
2018-05-02T04:07:28.251Z,20.77
2018-05-02T04:08:28.337Z,20.69
2018-05-02T04:09:28.289Z,20.67
2018-05-02T04:10:28.308Z,20.69
2018-05-02T04:11:28.325Z,20.72
2018-05-02T04:12:28.347Z,20.70
2018-05-02T04:13:28.371Z,20.67
2018-05-02T04:14:28.379Z,20.74
2018-05-02T04:15:28.392Z,20.74
2018-05-02T04:16:28.413Z,20.66
2018-05-02T04:17:28.443Z,20.72
2018-05-02T04:18:28.455Z,20.77
2018-05-02T04:19:28.477Z,20.70
2018-05-02T04:20:28.497Z,20.77
2018-05-02T04:21:28.519Z,20.74
2018-05-02T04:22:28.536Z,20.72
2018-05-02T04:23:28.547Z,20.78
2018-05-02T04:24:28.562Z,20.77
2018-05-02T04:25:28.582Z,20.78
2018-05-02T04:26:28.606Z,20.72
2018-05-02T04:27:28.621Z,20.70
2018-05-02T04:28:28.637Z,20.72
2018-05-02T04:29:28.661Z,20.72
2018-05-02T04:30:28.680Z,20.85
2018-05-02T04:31:28.702Z,20.75
2018-05-02T04:32:28.709Z,20.78
2018-05-02T04:33:28.731Z,20.69
2018-05-02T04:34:28.745Z,20.70
2018-05-02T04:35:28.785Z,20.74
2018-05-02T04:36:28.789Z,20.75
2018-05-02T04:37:28.802Z,20.74
2018-05-02T04:38:28.818Z,20.74
2018-05-02T04:39:28.842Z,20.74
2018-05-02T04:40:28.869Z,20.74
2018-05-02T04:41:28.893Z,20.72
2018-05-02T04:42:28.893Z,20.77
2018-05-02T04:43:28.913Z,20.74
2018-05-02T04:44:28.928Z,20.67
2018-05-02T04:45:28.950Z,20.70
2018-05-02T04:46:28.978Z,20.69
2018-05-02T04:47:28.991Z,20.77
2018-05-02T04:48:29.007Z,20.67
2018-05-02T04:49:29.027Z,20.67
2018-05-02T04:50:29.040Z,20.65
2018-05-02T04:51:29.061Z,20.80
2018-05-02T04:52:29.071Z,20.65
2018-05-02T04:53:29.089Z,20.67
2018-05-02T04:54:29.115Z,20.75
2018-05-02T04:55:29.131Z,20.70
2018-05-02T04:56:29.144Z,20.72
2018-05-02T04:57:29.177Z,20.72
2018-05-02T04:58:29.199Z,20.69
2018-05-02T04:59:29.269Z,20.69
2018-05-02T05:00:29.224Z,20.72
2018-05-02T05:01:29.240Z,20.70
2018-05-02T05:02:29.259Z,20.69
2018-05-02T05:03:29.283Z,20.70
2018-05-02T05:04:29.291Z,20.74
2018-05-02T05:05:29.367Z,20.74
2018-05-02T05:06:29.394Z,20.72
2018-05-02T05:07:29.353Z,20.82
2018-05-02T05:08:29.371Z,20.74
2018-05-02T05:09:29.382Z,20.74
2018-05-02T05:10:29.403Z,20.69
2018-05-02T05:11:29.433Z,20.70
2018-05-02T05:12:29.442Z,20.74
2018-05-02T05:13:29.455Z,20.78
2018-05-02T05:14:29.482Z,20.69
2018-05-02T05:15:29.501Z,20.62
2018-05-02T05:16:29.518Z,20.34
2018-05-02T05:17:29.534Z,20.19
2018-05-02T05:18:29.546Z,19.95
2018-05-02T05:19:29.571Z,19.76
2018-05-02T05:20:29.583Z,19.58
2018-05-02T05:21:29.611Z,19.34
2018-05-02T05:22:29.634Z,19.16
2018-05-02T05:23:29.649Z,19.04
2018-05-02T05:24:29.663Z,18.89
2018-05-02T05:25:29.676Z,18.78
2018-05-02T05:26:29.689Z,18.65
2018-05-02T05:27:29.722Z,18.59
2018-05-02T05:28:29.738Z,18.50
2018-05-02T05:29:29.759Z,18.34
2018-05-02T05:30:29.773Z,18.33
2018-05-02T05:31:29.786Z,18.23
2018-05-02T05:32:29.818Z,18.10
2018-05-02T05:33:29.839Z,18.01
2018-05-02T05:34:29.841Z,18.11
2018-05-02T05:35:29.861Z,18.07
2018-05-02T05:36:29.887Z,18.04
2018-05-02T05:37:29.892Z,17.92
2018-05-02T05:38:29.910Z,18.03
2018-05-02T05:39:29.957Z,18.11
2018-05-02T05:40:29.953Z,18.34
2018-05-02T05:41:29.996Z,18.53
2018-05-02T05:42:30.004Z,18.73
2018-05-02T05:43:30.027Z,18.75
2018-05-02T05:44:30.025Z,18.96
2018-05-02T05:45:30.053Z,19.11
2018-05-02T05:46:30.057Z,19.33
2018-05-02T05:47:30.073Z,19.41
2018-05-02T05:48:30.093Z,19.51
2018-05-02T05:49:30.112Z,19.66
2018-05-02T05:50:30.123Z,19.74
2018-05-02T05:51:30.149Z,19.89
2018-05-02T05:52:30.165Z,19.94
2018-05-02T05:53:30.175Z,20.03
2018-05-02T05:54:30.215Z,20.07
2018-05-02T05:55:30.224Z,20.31
2018-05-02T05:56:30.236Z,20.19
2018-05-02T05:57:30.258Z,20.22
2018-05-02T05:58:30.271Z,20.32
2018-05-02T05:59:30.286Z,20.40
2018-05-02T06:00:30.310Z,20.55
2018-05-02T06:01:30.329Z,20.50
2018-05-02T06:02:30.342Z,20.58
2018-05-02T06:03:30.363Z,20.66
2018-05-02T06:04:30.380Z,20.62
2018-05-02T06:05:30.400Z,20.55
2018-05-02T06:06:30.425Z,20.70
2018-05-02T06:07:30.433Z,20.74
2018-05-02T06:08:30.472Z,20.72
2018-05-02T06:09:30.478Z,20.75
2018-05-02T06:10:30.494Z,20.75
2018-05-02T06:11:30.512Z,20.77
2018-05-02T06:12:30.532Z,20.80
2018-05-02T06:13:30.536Z,20.80
2018-05-02T06:14:30.565Z,20.87
2018-05-02T06:15:30.585Z,20.88
2018-05-02T06:16:30.602Z,20.90
2018-05-02T06:17:30.614Z,20.87
2018-05-02T06:18:30.637Z,20.90
2018-05-02T06:19:30.654Z,20.88
2018-05-02T06:20:30.689Z,20.88
2018-05-02T06:21:30.685Z,20.87
2018-05-02T06:22:30.715Z,20.92
2018-05-02T06:23:30.723Z,21.00
2018-05-02T06:24:30.749Z,20.90
2018-05-02T06:25:30.764Z,21.00
2018-05-02T06:26:30.781Z,20.99
2018-05-02T06:27:30.805Z,20.99
2018-05-02T06:28:30.816Z,20.97
2018-05-02T06:29:30.837Z,20.99
2018-05-02T06:30:30.845Z,20.99
2018-05-02T06:31:30.887Z,21.03
2018-05-02T06:32:30.890Z,20.97
2018-05-02T06:33:30.911Z,20.96
2018-05-02T06:34:30.922Z,21.03
2018-05-02T06:35:30.948Z,21.02
2018-05-02T06:36:30.964Z,21.06
2018-05-02T06:37:31.050Z,20.93
2018-05-02T06:38:31.011Z,21.03
2018-05-02T06:39:31.023Z,20.99
2018-05-02T06:40:31.038Z,20.97
2018-05-02T06:41:31.064Z,21.05
2018-05-02T06:42:31.076Z,21.06
2018-05-02T06:43:31.127Z,21.02
2018-05-02T06:44:31.123Z,21.05
2018-05-02T06:45:31.135Z,21.00
2018-05-02T06:46:31.147Z,20.99
2018-05-02T06:47:31.169Z,21.11
2018-05-02T06:48:31.259Z,21.07
2018-05-02T06:49:31.216Z,21.12
2018-05-02T06:50:31.220Z,20.99
2018-05-02T06:51:31.285Z,21.06
2018-05-02T06:52:31.266Z,21.09
2018-05-02T06:53:31.278Z,21.07
2018-05-02T06:54:31.290Z,20.99
2018-05-02T06:55:31.322Z,21.00
2018-05-02T06:56:31.323Z,21.03
2018-05-02T06:57:31.342Z,21.06
2018-05-02T06:58:31.378Z,21.00
2018-05-02T06:59:31.385Z,20.99
2018-05-02T07:00:31.406Z,21.03
2018-05-02T07:01:31.417Z,20.90
2018-05-02T07:02:31.448Z,21.06
2018-05-02T07:03:31.472Z,20.96
2018-05-02T07:04:31.535Z,20.96
2018-05-02T07:05:31.488Z,21.00
2018-05-02T07:06:31.548Z,20.96
2018-05-02T07:07:31.572Z,21.07
2018-05-02T07:08:31.553Z,20.95
2018-05-02T07:09:31.589Z,21.05
2018-05-02T07:10:31.581Z,21.06
2018-05-02T07:11:31.616Z,21.06
2018-05-02T07:12:31.645Z,21.00
2018-05-02T07:13:31.646Z,21.05
2018-05-02T07:14:31.656Z,20.97
2018-05-02T07:15:31.678Z,20.99
2018-05-02T07:16:31.700Z,21.07
2018-05-02T07:17:31.781Z,21.00
2018-05-02T07:18:31.729Z,20.97
2018-05-02T07:19:31.754Z,21.02
2018-05-02T07:20:31.778Z,21.05
2018-05-02T07:21:31.796Z,21.06
2018-05-02T07:22:31.806Z,20.99
2018-05-02T07:23:31.828Z,21.06
2018-05-02T07:24:31.849Z,21.06
2018-05-02T07:25:31.867Z,20.99
2018-05-02T07:26:31.886Z,20.95
2018-05-02T07:27:31.905Z,21.06
2018-05-02T07:28:31.920Z,20.97
2018-05-02T07:29:31.944Z,21.02
2018-05-02T07:30:31.957Z,20.99
2018-05-02T07:31:31.976Z,21.02
2018-05-02T07:32:32.034Z,20.96
2018-05-02T07:33:32.015Z,21.07
2018-05-02T07:34:32.032Z,21.00
2018-05-02T07:35:32.054Z,21.00
2018-05-02T07:36:32.070Z,21.03
2018-05-02T07:37:32.091Z,21.00
2018-05-02T07:38:32.107Z,20.99
2018-05-02T07:39:32.151Z,20.99
2018-05-02T07:40:32.145Z,21.06
2018-05-02T07:41:32.163Z,21.09
2018-05-02T07:42:32.179Z,20.99
2018-05-02T07:43:32.197Z,21.00
2018-05-02T07:44:32.213Z,20.99
2018-05-02T07:45:32.229Z,21.06
2018-05-02T07:46:32.256Z,20.97
2018-05-02T07:47:32.315Z,21.03
2018-05-02T07:48:32.287Z,21.02
2018-05-02T07:49:32.300Z,21.07
2018-05-02T07:50:32.327Z,21.09
2018-05-02T07:51:32.349Z,21.07
2018-05-02T07:52:32.365Z,21.12
2018-05-02T07:53:32.380Z,21.05
2018-05-02T07:54:32.401Z,21.02
2018-05-02T07:55:32.424Z,21.11
2018-05-02T07:56:32.535Z,21.12
2018-05-02T07:57:32.453Z,21.03
2018-05-02T07:58:32.477Z,21.03
2018-05-02T07:59:32.491Z,21.11
2018-05-02T08:00:32.558Z,21.03
2018-05-02T08:01:32.533Z,21.06
2018-05-02T08:02:32.547Z,21.02
2018-05-02T08:03:32.577Z,21.03
2018-05-02T08:04:32.584Z,21.05
2018-05-02T08:05:32.600Z,21.03
2018-05-02T08:06:32.619Z,21.02
2018-05-02T08:07:32.651Z,21.05
2018-05-02T08:08:32.659Z,21.05
2018-05-02T08:09:32.680Z,21.05
2018-05-02T08:10:32.701Z,21.07
2018-05-02T08:11:32.716Z,21.07
2018-05-02T08:12:32.739Z,20.99
2018-05-02T08:13:32.766Z,21.02
2018-05-02T08:14:32.767Z,21.06
2018-05-02T08:15:32.794Z,20.96
2018-05-02T08:16:32.894Z,21.03
2018-05-02T08:17:32.829Z,20.95
2018-05-02T08:18:32.846Z,21.02
2018-05-02T08:19:32.873Z,20.97
2018-05-02T08:20:32.882Z,21.09
2018-05-02T08:21:32.896Z,20.99
2018-05-02T08:22:32.941Z,21.03
2018-05-02T08:23:32.931Z,21.02
2018-05-02T08:24:32.952Z,21.03
2018-05-02T08:25:32.974Z,21.00
2018-05-02T08:26:32.994Z,20.97
2018-05-02T08:27:33.006Z,21.03
2018-05-02T08:28:33.036Z,21.07
2018-05-02T08:29:33.045Z,21.05
2018-05-02T08:30:33.072Z,21.00
2018-05-02T08:31:33.093Z,21.02
2018-05-02T08:32:33.101Z,21.05
2018-05-02T08:33:33.121Z,21.03
2018-05-02T08:34:33.140Z,21.05
2018-05-02T08:35:33.190Z,21.02
2018-05-02T08:36:33.172Z,21.05
2018-05-02T08:37:33.195Z,21.03
2018-05-02T08:38:33.225Z,21.00
2018-05-02T08:39:33.234Z,21.02
2018-05-02T08:40:33.254Z,21.03
2018-05-02T08:41:33.259Z,21.03
2018-05-02T08:42:33.287Z,21.05
2018-05-02T08:43:33.305Z,21.02
2018-05-02T08:44:33.335Z,21.00
2018-05-02T08:45:33.342Z,21.02
2018-05-02T08:46:33.364Z,20.90
2018-05-02T08:47:33.379Z,21.00
2018-05-02T08:48:33.399Z,20.97
2018-05-02T08:49:33.449Z,21.06
2018-05-02T08:50:33.440Z,21.03
2018-05-02T08:51:33.490Z,20.99
2018-05-02T08:52:33.471Z,21.02
2018-05-02T08:53:33.489Z,21.02
2018-05-02T08:54:33.509Z,21.03
2018-05-02T08:55:33.529Z,21.00
2018-05-02T08:56:33.551Z,20.97
2018-05-02T08:57:33.565Z,21.00
2018-05-02T08:58:33.573Z,21.03
2018-05-02T08:59:33.604Z,21.06
2018-05-02T09:00:33.617Z,21.07
2018-05-02T09:01:33.688Z,21.09
2018-05-02T09:02:33.654Z,21.02
2018-05-02T09:03:33.672Z,21.03
2018-05-02T09:04:33.690Z,21.09
2018-05-02T09:05:33.715Z,21.09
2018-05-02T09:06:33.732Z,20.97
2018-05-02T09:07:33.758Z,20.99
2018-05-02T09:08:33.758Z,21.00
2018-05-02T09:09:33.786Z,21.03
2018-05-02T09:10:33.801Z,20.97
2018-05-02T09:11:33.821Z,21.03
2018-05-02T09:12:33.836Z,20.99
2018-05-02T09:13:33.855Z,20.92
2018-05-02T09:14:33.877Z,20.95
2018-05-02T09:15:33.984Z,21.06
2018-05-02T09:16:33.911Z,21.07
2018-05-02T09:17:33.931Z,21.00
2018-05-02T09:18:33.948Z,21.03
2018-05-02T09:19:34.016Z,21.00
2018-05-02T09:20:33.986Z,20.99
2018-05-02T09:21:34.008Z,20.97
2018-05-02T09:22:34.029Z,21.00
2018-05-02T09:23:34.040Z,21.03
2018-05-02T09:24:34.056Z,21.02
2018-05-02T09:25:34.071Z,20.97
2018-05-02T09:26:34.109Z,21.02
2018-05-02T09:27:34.147Z,21.00
2018-05-02T09:28:34.133Z,20.96
2018-05-02T09:29:34.150Z,21.11
2018-05-02T09:30:34.170Z,21.00
2018-05-02T09:31:34.197Z,21.03
2018-05-02T09:32:34.202Z,20.99
2018-05-02T09:33:34.220Z,21.11
2018-05-02T09:34:34.271Z,20.99
2018-05-02T09:35:34.308Z,21.03
2018-05-02T09:36:34.280Z,21.06
2018-05-02T09:37:34.299Z,21.03
2018-05-02T09:38:34.317Z,21.11
2018-05-02T09:39:34.336Z,21.07
2018-05-02T09:40:34.361Z,21.14
2018-05-02T09:41:34.371Z,21.14
2018-05-02T09:42:34.393Z,21.11
2018-05-02T09:43:34.401Z,21.07
2018-05-02T09:44:34.431Z,21.12
2018-05-02T09:45:34.448Z,21.12
2018-05-02T09:46:34.471Z,21.11
2018-05-02T09:47:34.484Z,21.11
2018-05-02T09:48:34.494Z,21.06
2018-05-02T09:49:34.527Z,21.07
2018-05-02T09:50:34.541Z,21.06
2018-05-02T09:51:34.552Z,21.15
2018-05-02T09:52:34.577Z,21.12
2018-05-02T09:53:34.594Z,21.11
2018-05-02T09:54:34.615Z,21.09
2018-05-02T09:55:34.634Z,21.18
2018-05-02T09:56:34.650Z,21.17
2018-05-02T09:57:34.707Z,21.18
2018-05-02T09:58:34.696Z,21.22
2018-05-02T09:59:34.756Z,21.21
2018-05-02T10:00:34.727Z,21.22
2018-05-02T10:01:34.737Z,21.11
2018-05-02T10:02:34.763Z,21.17
2018-05-02T10:03:34.783Z,21.25
2018-05-02T10:04:34.906Z,21.29
2018-05-02T10:05:34.807Z,21.21
2018-05-02T10:06:34.838Z,21.21
2018-05-02T10:07:34.852Z,21.29
2018-05-02T10:08:34.876Z,21.18
2018-05-02T10:09:34.888Z,21.24
2018-05-02T10:10:34.910Z,21.21
2018-05-02T10:11:34.935Z,21.21
2018-05-02T10:12:35.013Z,21.25
2018-05-02T10:13:34.967Z,21.25
2018-05-02T10:14:34.995Z,21.35
2018-05-02T10:15:35.016Z,21.32
2018-05-02T10:16:35.019Z,21.29
2018-05-02T10:17:35.038Z,21.32
2018-05-02T10:18:35.165Z,21.29
2018-05-02T10:19:35.081Z,21.29
2018-05-02T10:20:35.096Z,21.35
2018-05-02T10:21:35.170Z,21.29
2018-05-02T10:22:35.134Z,21.30
2018-05-02T10:23:35.187Z,21.32
2018-05-02T10:24:35.176Z,21.35
2018-05-02T10:25:35.188Z,21.43
2018-05-02T10:26:35.218Z,21.35
2018-05-02T10:27:35.222Z,21.37
2018-05-02T10:28:35.239Z,21.30
2018-05-02T10:29:35.263Z,21.37
2018-05-02T10:30:35.300Z,21.43
2018-05-02T10:31:35.300Z,21.40
2018-05-02T10:32:35.322Z,21.45
2018-05-02T10:33:35.343Z,21.39
2018-05-02T10:34:35.359Z,21.39
2018-05-02T10:35:35.372Z,21.39
2018-05-02T10:36:35.399Z,21.45
2018-05-02T10:37:35.414Z,21.42
2018-05-02T10:38:35.466Z,21.50
2018-05-02T10:39:35.441Z,21.42
2018-05-02T10:40:35.466Z,21.50
2018-05-02T10:41:35.488Z,21.50
2018-05-02T10:42:35.506Z,21.43
2018-05-02T10:43:35.569Z,21.54
2018-05-02T10:44:35.544Z,21.52
2018-05-02T10:45:35.562Z,21.46
2018-05-02T10:46:35.618Z,21.48
2018-05-02T10:47:35.598Z,21.45
2018-05-02T10:48:35.618Z,21.45
2018-05-02T10:49:35.698Z,21.46
2018-05-02T10:50:35.711Z,21.52
2018-05-02T10:51:35.707Z,21.58
2018-05-02T10:52:35.687Z,21.60
2018-05-02T10:53:35.723Z,21.54
2018-05-02T10:54:35.733Z,21.62
2018-05-02T10:55:35.748Z,21.58
2018-05-02T10:56:35.771Z,21.64
2018-05-02T10:57:35.790Z,21.55
2018-05-02T10:58:35.809Z,21.61
2018-05-02T10:59:35.843Z,21.58
2018-05-02T11:00:35.844Z,21.57
2018-05-02T11:01:35.858Z,21.67
2018-05-02T11:02:35.885Z,21.72
2018-05-02T11:03:35.905Z,21.70
2018-05-02T11:04:35.916Z,21.76
2018-05-02T11:05:35.935Z,21.73
2018-05-02T11:06:35.960Z,21.80
2018-05-02T11:07:35.973Z,21.72
2018-05-02T11:08:36.010Z,21.79
2018-05-02T11:09:36.008Z,21.83
2018-05-02T11:10:36.027Z,21.80
2018-05-02T11:11:36.052Z,21.79
2018-05-02T11:12:36.066Z,21.83
2018-05-02T11:13:36.085Z,21.76
2018-05-02T11:14:36.105Z,21.82
2018-05-02T11:15:36.135Z,21.82
2018-05-02T11:16:36.141Z,21.82
2018-05-02T11:17:36.171Z,21.82
2018-05-02T11:18:36.180Z,21.92
2018-05-02T11:19:36.205Z,21.96
2018-05-02T11:20:36.221Z,21.89
2018-05-02T11:21:36.244Z,21.98
2018-05-02T11:22:36.291Z,21.93
2018-05-02T11:23:36.280Z,21.91
2018-05-02T11:24:36.299Z,21.98
2018-05-02T11:25:36.311Z,21.96
2018-05-02T11:26:36.334Z,21.98
2018-05-02T11:27:36.362Z,22.07
2018-05-02T11:28:36.371Z,22.04
2018-05-02T11:29:36.389Z,22.04
2018-05-02T11:30:36.411Z,21.99
2018-05-02T11:31:36.440Z,21.99
2018-05-02T11:32:36.451Z,22.00
2018-05-02T11:33:36.461Z,22.02
2018-05-02T11:34:36.569Z,22.06
2018-05-02T11:35:36.511Z,22.00
2018-05-02T11:36:36.550Z,22.06
2018-05-02T11:37:36.543Z,22.00
2018-05-02T11:38:36.565Z,21.99
2018-05-02T11:39:36.582Z,22.04
2018-05-02T11:40:36.652Z,22.10
2018-05-02T11:41:36.619Z,22.02
2018-05-02T11:42:36.633Z,22.17
2018-05-02T11:43:36.658Z,22.17
2018-05-02T11:44:36.687Z,22.18
2018-05-02T11:45:36.703Z,22.13
2018-05-02T11:46:36.727Z,22.18
2018-05-02T11:47:36.732Z,22.11
2018-05-02T11:48:36.754Z,22.11
2018-05-02T11:49:36.764Z,22.26
2018-05-02T11:50:36.780Z,22.14
2018-05-02T11:51:36.809Z,22.20
2018-05-02T11:52:36.829Z,22.23
2018-05-02T11:53:36.850Z,22.14
2018-05-02T11:54:36.867Z,22.25
2018-05-02T11:55:36.898Z,22.28
2018-05-02T11:56:36.905Z,22.23
2018-05-02T11:57:36.922Z,22.20
2018-05-02T11:58:36.942Z,22.26
2018-05-02T11:59:36.967Z,22.14
2018-05-02T12:00:37.005Z,22.25
2018-05-02T12:01:37.003Z,22.25
2018-05-02T12:02:37.072Z,22.23
2018-05-02T12:03:37.066Z,22.23
2018-05-02T12:04:37.056Z,22.29
2018-05-02T12:05:37.134Z,22.26
2018-05-02T12:06:37.092Z,22.30
2018-05-02T12:07:37.171Z,22.22
2018-05-02T12:08:37.132Z,22.35
2018-05-02T12:09:37.157Z,22.32
2018-05-02T12:10:37.169Z,22.35
2018-05-02T12:11:37.191Z,22.29
2018-05-02T12:12:37.210Z,22.30
2018-05-02T12:13:37.227Z,22.39
2018-05-02T12:14:37.247Z,22.38
2018-05-02T12:15:37.268Z,22.38
2018-05-02T12:16:37.285Z,22.39
2018-05-02T12:17:37.308Z,22.43
2018-05-02T12:18:37.327Z,22.54
2018-05-02T12:19:37.343Z,22.41
2018-05-02T12:20:37.364Z,22.57
2018-05-02T12:21:37.385Z,22.53
2018-05-02T12:22:37.401Z,22.53
2018-05-02T12:23:37.421Z,22.51
2018-05-02T12:24:37.441Z,22.51
2018-05-02T12:25:37.463Z,22.48
2018-05-02T12:26:37.479Z,22.44
2018-05-02T12:27:37.498Z,22.50
2018-05-02T12:28:37.516Z,22.53
2018-05-02T12:29:37.552Z,22.62
2018-05-02T12:30:37.558Z,22.51
2018-05-02T12:31:37.575Z,22.50
2018-05-02T12:32:37.598Z,22.45
2018-05-02T12:33:37.620Z,22.44
2018-05-02T12:34:37.640Z,22.51
2018-05-02T12:35:37.660Z,22.44
2018-05-02T12:36:37.674Z,22.45
2018-05-02T12:37:37.698Z,22.39
2018-05-02T12:38:37.717Z,22.44
2018-05-02T12:39:37.731Z,22.44
2018-05-02T12:40:37.743Z,22.44
2018-05-02T12:41:37.770Z,22.44
2018-05-02T12:42:37.793Z,22.48
2018-05-02T12:43:37.814Z,22.43
2018-05-02T12:44:37.867Z,22.48
2018-05-02T12:45:37.933Z,22.39
2018-05-02T12:46:37.876Z,22.45
2018-05-02T12:47:37.914Z,22.43
2018-05-02T12:48:37.907Z,22.43
2018-05-02T12:49:37.944Z,22.44
2018-05-02T12:50:37.957Z,22.53
2018-05-02T12:51:37.977Z,22.43
2018-05-02T12:52:37.981Z,22.43